sensor_id;sensor_type;location;lat;lon;timestamp;P1;durP1;ratioP1;P2;durP2;ratioP2
47772;SDS011;33534;51.028;13.716;2022-10-22T00:01:15;72.28;;;37.50;;
47772;SDS011;33534;51.028;13.716;2022-10-22T00:03:43;73.57;;;38.38;;
47772;SDS011;33534;51.028;13.716;2022-10-22T00:06:12;66.78;;;37.90;;
47772;SDS011;33534;51.028;13.716;2022-10-22T00:08:40;69.55;;;37.78;;
47772;SDS011;33534;51.028;13.716;2022-10-22T00:11:08;66.70;;;36.55;;
47772;SDS011;33534;51.028;13.716;2022-10-22T00:13:37;63.20;;;36.83;;
47772;SDS011;33534;51.028;13.716;2022-10-22T00:18:50;61.35;;;35.65;;
47772;SDS011;33534;51.028;13.716;2022-10-22T00:21:21;74.13;;;38.22;;
47772;SDS011;33534;51.028;13.716;2022-10-22T00:23:47;68.25;;;37.55;;
47772;SDS011;33534;51.028;13.716;2022-10-22T00:26:21;61.95;;;36.30;;
47772;SDS011;33534;51.028;13.716;2022-10-22T00:28:50;61.38;;;36.17;;
47772;SDS011;33534;51.028;13.716;2022-10-22T00:31:25;65.13;;;37.28;;
47772;SDS011;33534;51.028;13.716;2022-10-22T00:33:51;63.20;;;36.85;;
47772;SDS011;33534;51.028;13.716;2022-10-22T00:36:17;66.55;;;36.22;;
47772;SDS011;33534;51.028;13.716;2022-10-22T00:38:43;70.07;;;37.75;;
47772;SDS011;33534;51.028;13.716;2022-10-22T00:41:09;74.70;;;38.28;;
47772;SDS011;33534;51.028;13.716;2022-10-22T00:43:52;67.93;;;37.75;;
47772;SDS011;33534;51.028;13.716;2022-10-22T00:46:18;68.28;;;38.15;;
47772;SDS011;33534;51.028;13.716;2022-10-22T00:48:54;77.85;;;39.05;;
47772;SDS011;33534;51.028;13.716;2022-10-22T00:51:20;76.68;;;41.63;;
47772;SDS011;33534;51.028;13.716;2022-10-22T00:56:19;76.20;;;41.08;;
47772;SDS011;33534;51.028;13.716;2022-10-22T00:58:55;81.30;;;40.55;;
47772;SDS011;33534;51.028;13.716;2022-10-22T01:01:23;79.97;;;43.30;;
47772;SDS011;33534;51.028;13.716;2022-10-22T01:03:50;85.22;;;44.28;;
47772;SDS011;33534;51.028;13.716;2022-10-22T01:06:24;84.03;;;43.42;;
47772;SDS011;33534;51.028;13.716;2022-10-22T01:09:02;81.90;;;43.25;;
47772;SDS011;33534;51.028;13.716;2022-10-22T01:11:39;83.17;;;43.83;;
47772;SDS011;33534;51.028;13.716;2022-10-22T01:21:58;71.15;;;38.58;;
47772;SDS011;33534;51.028;13.716;2022-10-22T01:29:56;67.82;;;35.88;;
47772;SDS011;33534;51.028;13.716;2022-10-22T01:32:42;67.85;;;36.65;;
47772;SDS011;33534;51.028;13.716;2022-10-22T01:37:57;69.40;;;37.80;;
47772;SDS011;33534;51.028;13.716;2022-10-22T01:40:28;64.70;;;38.15;;
47772;SDS011;33534;51.028;13.716;2022-10-22T01:43:01;66.38;;;35.67;;
47772;SDS011;33534;51.028;13.716;2022-10-22T01:45:29;67.05;;;36.45;;
47772;SDS011;33534;51.028;13.716;2022-10-22T02:03:38;62.60;;;37.15;;
47772;SDS011;33534;51.028;13.716;2022-10-22T02:06:10;71.07;;;39.50;;
47772;SDS011;33534;51.028;13.716;2022-10-22T02:08:40;68.13;;;37.25;;
47772;SDS011;33534;51.028;13.716;2022-10-22T02:11:08;66.78;;;37.58;;
47772;SDS011;33534;51.028;13.716;2022-10-22T02:13:45;67.45;;;37.63;;
47772;SDS011;33534;51.028;13.716;2022-10-22T02:16:12;71.03;;;40.30;;
47772;SDS011;33534;51.028;13.716;2022-10-22T02:18:44;64.72;;;37.63;;
47772;SDS011;33534;51.028;13.716;2022-10-22T02:21:21;62.08;;;37.13;;
47772;SDS011;33534;51.028;13.716;2022-10-22T02:23:47;68.30;;;39.53;;
47772;SDS011;33534;51.028;13.716;2022-10-22T02:26:33;65.18;;;36.90;;
47772;SDS011;33534;51.028;13.716;2022-10-22T02:29:10;69.93;;;38.53;;
47772;SDS011;33534;51.028;13.716;2022-10-22T02:31:37;68.47;;;39.67;;
47772;SDS011;33534;51.028;13.716;2022-10-22T02:34:15;73.00;;;39.80;;
47772;SDS011;33534;51.028;13.716;2022-10-22T02:36:50;70.45;;;38.03;;
47772;SDS011;33534;51.028;13.716;2022-10-22T02:39:17;77.32;;;41.10;;
47772;SDS011;33534;51.028;13.716;2022-10-22T02:41:46;71.38;;;40.08;;
47772;SDS011;33534;51.028;13.716;2022-10-22T02:44:19;76.22;;;41.60;;
47772;SDS011;33534;51.028;13.716;2022-10-22T02:46:55;71.13;;;38.78;;
47772;SDS011;33534;51.028;13.716;2022-10-22T02:49:24;72.95;;;39.95;;
47772;SDS011;33534;51.028;13.716;2022-10-22T02:51:50;72.63;;;41.00;;
47772;SDS011;33534;51.028;13.716;2022-10-22T02:54:19;70.68;;;39.17;;
47772;SDS011;33534;51.028;13.716;2022-10-22T02:56:48;69.80;;;38.80;;
47772;SDS011;33534;51.028;13.716;2022-10-22T02:59:17;72.60;;;38.90;;
47772;SDS011;33534;51.028;13.716;2022-10-22T03:04:47;71.90;;;39.60;;
47772;SDS011;33534;51.028;13.716;2022-10-22T03:07:19;74.18;;;41.17;;
47772;SDS011;33534;51.028;13.716;2022-10-22T03:09:45;77.00;;;41.38;;
47772;SDS011;33534;51.028;13.716;2022-10-22T03:12:11;69.93;;;39.70;;
47772;SDS011;33534;51.028;13.716;2022-10-22T03:14:40;68.30;;;37.85;;
47772;SDS011;33534;51.028;13.716;2022-10-22T03:17:06;71.75;;;38.25;;
47772;SDS011;33534;51.028;13.716;2022-10-22T03:19:32;69.88;;;38.78;;
47772;SDS011;33534;51.028;13.716;2022-10-22T03:21:59;69.25;;;38.17;;
47772;SDS011;33534;51.028;13.716;2022-10-22T03:27:34;64.55;;;35.88;;
47772;SDS011;33534;51.028;13.716;2022-10-22T03:30:09;68.57;;;38.35;;
47772;SDS011;33534;51.028;13.716;2022-10-22T03:32:35;67.05;;;37.58;;
47772;SDS011;33534;51.028;13.716;2022-10-22T03:35:04;67.80;;;37.80;;
47772;SDS011;33534;51.028;13.716;2022-10-22T03:37:31;62.45;;;35.75;;
47772;SDS011;33534;51.028;13.716;2022-10-22T03:39:58;64.40;;;34.83;;
47772;SDS011;33534;51.028;13.716;2022-10-22T03:42:24;61.58;;;34.47;;
47772;SDS011;33534;51.028;13.716;2022-10-22T03:44:51;63.38;;;35.20;;
47772;SDS011;33534;51.028;13.716;2022-10-22T03:47:17;62.13;;;36.10;;
47772;SDS011;33534;51.028;13.716;2022-10-22T03:49:49;61.17;;;35.42;;
47772;SDS011;33534;51.028;13.716;2022-10-22T03:52:23;68.68;;;36.95;;
47772;SDS011;33534;51.028;13.716;2022-10-22T03:54:55;60.10;;;35.90;;
47772;SDS011;33534;51.028;13.716;2022-10-22T03:57:21;64.63;;;36.42;;
47772;SDS011;33534;51.028;13.716;2022-10-22T03:59:50;72.00;;;38.28;;
47772;SDS011;33534;51.028;13.716;2022-10-22T04:02:25;81.47;;;40.45;;
47772;SDS011;33534;51.028;13.716;2022-10-22T04:04:51;69.18;;;40.05;;
47772;SDS011;33534;51.028;13.716;2022-10-22T04:07:20;73.15;;;40.35;;
47772;SDS011;33534;51.028;13.716;2022-10-22T04:09:50;74.57;;;39.10;;
47772;SDS011;33534;51.028;13.716;2022-10-22T04:12:16;76.97;;;40.63;;
47772;SDS011;33534;51.028;13.716;2022-10-22T04:14:46;76.97;;;39.47;;
47772;SDS011;33534;51.028;13.716;2022-10-22T04:17:15;82.07;;;42.08;;
47772;SDS011;33534;51.028;13.716;2022-10-22T04:19:51;77.90;;;40.40;;
47772;SDS011;33534;51.028;13.716;2022-10-22T04:22:23;84.88;;;42.42;;
47772;SDS011;33534;51.028;13.716;2022-10-22T04:24:52;73.97;;;38.65;;
47772;SDS011;33534;51.028;13.716;2022-10-22T04:27:20;76.57;;;40.45;;
47772;SDS011;33534;51.028;13.716;2022-10-22T04:29:47;74.72;;;40.00;;
47772;SDS011;33534;51.028;13.716;2022-10-22T04:32:13;76.38;;;39.22;;
47772;SDS011;33534;51.028;13.716;2022-10-22T04:34:39;77.13;;;39.42;;
47772;SDS011;33534;51.028;13.716;2022-10-22T04:37:05;67.63;;;38.67;;
47772;SDS011;33534;51.028;13.716;2022-10-22T04:39:31;71.00;;;37.75;;
47772;SDS011;33534;51.028;13.716;2022-10-22T04:41:57;68.80;;;37.05;;
47772;SDS011;33534;51.028;13.716;2022-10-22T04:44:23;65.57;;;36.22;;
47772;SDS011;33534;51.028;13.716;2022-10-22T04:46:51;67.53;;;36.58;;
47772;SDS011;33534;51.028;13.716;2022-10-22T04:49:20;68.10;;;37.15;;
47772;SDS011;33534;51.028;13.716;2022-10-22T04:51:46;69.03;;;39.33;;
47772;SDS011;33534;51.028;13.716;2022-10-22T04:54:12;73.28;;;39.85;;
47772;SDS011;33534;51.028;13.716;2022-10-22T04:59:32;76.32;;;38.80;;
47772;SDS011;33534;51.028;13.716;2022-10-22T05:01:58;78.47;;;41.15;;
47772;SDS011;33534;51.028;13.716;2022-10-22T05:04:28;73.53;;;39.83;;
47772;SDS011;33534;51.028;13.716;2022-10-22T05:06:54;72.32;;;37.30;;
47772;SDS011;33534;51.028;13.716;2022-10-22T05:09:26;75.55;;;39.63;;
47772;SDS011;33534;51.028;13.716;2022-10-22T05:12:02;67.15;;;38.10;;
47772;SDS011;33534;51.028;13.716;2022-10-22T05:14:35;70.78;;;38.50;;
47772;SDS011;33534;51.028;13.716;2022-10-22T05:17:04;69.57;;;37.90;;
47772;SDS011;33534;51.028;13.716;2022-10-22T05:19:30;67.70;;;37.58;;
47772;SDS011;33534;51.028;13.716;2022-10-22T05:21:59;72.35;;;37.58;;
47772;SDS011;33534;51.028;13.716;2022-10-22T05:24:26;70.93;;;39.83;;
47772;SDS011;33534;51.028;13.716;2022-10-22T05:26:54;72.97;;;40.67;;
47772;SDS011;33534;51.028;13.716;2022-10-22T05:29:20;64.22;;;37.05;;
47772;SDS011;33534;51.028;13.716;2022-10-22T05:31:49;65.65;;;37.05;;
47772;SDS011;33534;51.028;13.716;2022-10-22T05:34:18;59.25;;;35.72;;
47772;SDS011;33534;51.028;13.716;2022-10-22T05:36:44;73.38;;;38.58;;
47772;SDS011;33534;51.028;13.716;2022-10-22T05:39:23;71.47;;;38.30;;
47772;SDS011;33534;51.028;13.716;2022-10-22T05:41:52;67.68;;;36.63;;
47772;SDS011;33534;51.028;13.716;2022-10-22T05:44:23;61.95;;;36.25;;
47772;SDS011;33534;51.028;13.716;2022-10-22T05:46:49;66.95;;;37.58;;
47772;SDS011;33534;51.028;13.716;2022-10-22T05:49:16;66.15;;;36.55;;
47772;SDS011;33534;51.028;13.716;2022-10-22T05:51:42;62.65;;;35.28;;
47772;SDS011;33534;51.028;13.716;2022-10-22T05:54:10;60.40;;;35.90;;
47772;SDS011;33534;51.028;13.716;2022-10-22T05:56:45;60.03;;;35.15;;
47772;SDS011;33534;51.028;13.716;2022-10-22T07:28:26;45.22;;;29.02;;
47772;SDS011;33534;51.028;13.716;2022-10-22T07:42:59;130.27;;;47.85;;
47772;SDS011;33534;51.028;13.716;2022-10-22T07:45:28;130.65;;;49.35;;
47772;SDS011;33534;51.028;13.716;2022-10-22T07:47:54;136.93;;;51.83;;
47772;SDS011;33534;51.028;13.716;2022-10-22T07:50:23;124.93;;;51.33;;
47772;SDS011;33534;51.028;13.716;2022-10-22T07:52:49;181.27;;;57.22;;
47772;SDS011;33534;51.028;13.716;2022-10-22T07:55:15;178.93;;;60.78;;
47772;SDS011;33534;51.028;13.716;2022-10-22T07:57:41;236.98;;;68.07;;
47772;SDS011;33534;51.028;13.716;2022-10-22T08:00:07;210.43;;;66.82;;
47772;SDS011;33534;51.028;13.716;2022-10-22T08:02:34;271.25;;;140.52;;
47772;SDS011;33534;51.028;13.716;2022-10-22T08:05:00;137.80;;;58.72;;
47772;SDS011;33534;51.028;13.716;2022-10-22T08:07:28;91.95;;;42.47;;
47772;SDS011;33534;51.028;13.716;2022-10-22T08:09:54;62.72;;;37.83;;
47772;SDS011;33534;51.028;13.716;2022-10-22T08:12:20;48.38;;;27.88;;
47772;SDS011;33534;51.028;13.716;2022-10-22T08:14:46;51.53;;;23.95;;
47772;SDS011;33534;51.028;13.716;2022-10-22T08:17:14;31.85;;;16.90;;
47772;SDS011;33534;51.028;13.716;2022-10-22T08:19:42;20.90;;;10.63;;
47772;SDS011;33534;51.028;13.716;2022-10-22T08:22:08;15.95;;;8.55;;
47772;SDS011;33534;51.028;13.716;2022-10-22T08:24:34;9.20;;;6.32;;
47772;SDS011;33534;51.028;13.716;2022-10-22T08:27:00;9.40;;;6.70;;
47772;SDS011;33534;51.028;13.716;2022-10-22T08:29:26;9.10;;;5.78;;
47772;SDS011;33534;51.028;13.716;2022-10-22T08:31:52;11.07;;;6.90;;
47772;SDS011;33534;51.028;13.716;2022-10-22T08:34:19;12.02;;;6.95;;
47772;SDS011;33534;51.028;13.716;2022-10-22T08:36:45;8.15;;;5.43;;
47772;SDS011;33534;51.028;13.716;2022-10-22T08:39:14;10.20;;;7.20;;
47772;SDS011;33534;51.028;13.716;2022-10-22T08:46:46;13.60;;;8.38;;
47772;SDS011;33534;51.028;13.716;2022-10-22T08:49:18;20.10;;;9.27;;
47772;SDS011;33534;51.028;13.716;2022-10-22T08:51:45;13.20;;;7.93;;
47772;SDS011;33534;51.028;13.716;2022-10-22T08:56:44;15.82;;;9.18;;
47772;SDS011;33534;51.028;13.716;2022-10-22T08:59:13;45.58;;;20.65;;
47772;SDS011;33534;51.028;13.716;2022-10-22T09:01:40;73.72;;;35.80;;
47772;SDS011;33534;51.028;13.716;2022-10-22T09:06:40;79.38;;;37.53;;
47772;SDS011;33534;51.028;13.716;2022-10-22T09:09:13;162.98;;;52.92;;
47772;SDS011;33534;51.028;13.716;2022-10-22T09:11:41;140.82;;;49.03;;
47772;SDS011;33534;51.028;13.716;2022-10-22T09:14:09;154.70;;;51.30;;
47772;SDS011;33534;51.028;13.716;2022-10-22T09:16:41;76.82;;;38.90;;
47772;SDS011;33534;51.028;13.716;2022-10-22T09:19:11;98.13;;;41.13;;
47772;SDS011;33534;51.028;13.716;2022-10-22T09:24:30;83.97;;;38.08;;
47772;SDS011;33534;51.028;13.716;2022-10-22T09:26:58;68.68;;;36.95;;
47772;SDS011;33534;51.028;13.716;2022-10-22T09:29:28;70.63;;;37.33;;
47772;SDS011;33534;51.028;13.716;2022-10-22T09:32:01;100.53;;;48.45;;
47772;SDS011;33534;51.028;13.716;2022-10-22T09:34:33;133.30;;;54.80;;
47772;SDS011;33534;51.028;13.716;2022-10-22T09:37:03;80.38;;;42.63;;
47772;SDS011;33534;51.028;13.716;2022-10-22T09:41:55;76.63;;;42.97;;
47772;SDS011;33534;51.028;13.716;2022-10-22T09:44:21;75.35;;;41.30;;
47772;SDS011;33534;51.028;13.716;2022-10-22T09:46:47;79.13;;;42.78;;
47772;SDS011;33534;51.028;13.716;2022-10-22T09:49:14;92.93;;;45.03;;
47772;SDS011;33534;51.028;13.716;2022-10-22T09:54:26;48.65;;;32.13;;
47772;SDS011;33534;51.028;13.716;2022-10-22T09:57:03;53.65;;;32.05;;
47772;SDS011;33534;51.028;13.716;2022-10-22T09:59:31;60.28;;;35.20;;
47772;SDS011;33534;51.028;13.716;2022-10-22T10:07:50;36.97;;;24.88;;
47772;SDS011;33534;51.028;13.716;2022-10-22T10:13:21;20.88;;;15.05;;
47772;SDS011;33534;51.028;13.716;2022-10-22T10:26:54;21.65;;;15.02;;
47772;SDS011;33534;51.028;13.716;2022-10-22T10:34:22;18.63;;;14.40;;
47772;SDS011;33534;51.028;13.716;2022-10-22T10:47:06;18.90;;;14.32;;
47772;SDS011;33534;51.028;13.716;2022-10-22T10:49:36;17.30;;;14.32;;
47772;SDS011;33534;51.028;13.716;2022-10-22T10:52:19;16.10;;;13.52;;
47772;SDS011;33534;51.028;13.716;2022-10-22T10:57:49;19.58;;;12.23;;
47772;SDS011;33534;51.028;13.716;2022-10-22T11:00:17;11.90;;;10.02;;
47772;SDS011;33534;51.028;13.716;2022-10-22T11:07:49;2.85;;;1.30;;
47772;SDS011;33534;51.028;13.716;2022-10-22T11:15:42;1.83;;;1.00;;
47772;SDS011;33534;51.028;13.716;2022-10-22T11:18:21;1.23;;;0.88;;
47772;SDS011;33534;51.028;13.716;2022-10-22T11:23:29;1.10;;;0.95;;
47772;SDS011;33534;51.028;13.716;2022-10-22T11:25:57;1.05;;;0.55;;
47772;SDS011;33534;51.028;13.716;2022-10-22T11:28:36;1.90;;;0.80;;
47772;SDS011;33534;51.028;13.716;2022-10-22T11:31:07;1.15;;;0.70;;
47772;SDS011;33534;51.028;13.716;2022-10-22T11:33:37;2.05;;;0.80;;
47772;SDS011;33534;51.028;13.716;2022-10-22T11:36:07;0.82;;;0.68;;
47772;SDS011;33534;51.028;13.716;2022-10-22T11:38:33;2.67;;;1.33;;
47772;SDS011;33534;51.028;13.716;2022-10-22T11:41:02;1.17;;;0.80;;
47772;SDS011;33534;51.028;13.716;2022-10-22T11:48:40;5.93;;;1.10;;
47772;SDS011;33534;51.028;13.716;2022-10-22T11:53:54;7.55;;;1.58;;
47772;SDS011;33534;51.028;13.716;2022-10-22T11:56:21;2.15;;;1.38;;
47772;SDS011;33534;51.028;13.716;2022-10-22T11:58:48;1.80;;;1.35;;
47772;SDS011;33534;51.028;13.716;2022-10-22T12:01:21;1.92;;;1.10;;
47772;SDS011;33534;51.028;13.716;2022-10-22T12:14:15;3.10;;;1.52;;
47772;SDS011;33534;51.028;13.716;2022-10-22T12:21:58;2.85;;;1.50;;
47772;SDS011;33534;51.028;13.716;2022-10-22T12:24:24;3.45;;;1.23;;
47772;SDS011;33534;51.028;13.716;2022-10-22T12:26:54;3.13;;;0.90;;
47772;SDS011;33534;51.028;13.716;2022-10-22T12:29:20;1.20;;;0.90;;
47772;SDS011;33534;51.028;13.716;2022-10-22T12:31:47;2.50;;;1.05;;
47772;SDS011;33534;51.028;13.716;2022-10-22T12:34:15;2.42;;;1.58;;
47772;SDS011;33534;51.028;13.716;2022-10-22T12:36:41;4.68;;;1.20;;
47772;SDS011;33534;51.028;13.716;2022-10-22T12:39:10;2.05;;;1.02;;
47772;SDS011;33534;51.028;13.716;2022-10-22T12:41:36;2.42;;;1.25;;
47772;SDS011;33534;51.028;13.716;2022-10-22T12:44:03;1.60;;;1.23;;
47772;SDS011;33534;51.028;13.716;2022-10-22T12:46:30;4.45;;;1.00;;
47772;SDS011;33534;51.028;13.716;2022-10-22T12:49:04;3.20;;;1.45;;
47772;SDS011;33534;51.028;13.716;2022-10-22T12:51:36;2.47;;;1.00;;
47772;SDS011;33534;51.028;13.716;2022-10-22T12:54:11;1.38;;;1.10;;
47772;SDS011;33534;51.028;13.716;2022-10-22T12:56:39;1.42;;;1.15;;
47772;SDS011;33534;51.028;13.716;2022-10-22T12:59:13;3.50;;;1.40;;
47772;SDS011;33534;51.028;13.716;2022-10-22T13:01:41;1.05;;;0.95;;
47772;SDS011;33534;51.028;13.716;2022-10-22T13:06:47;1.10;;;1.00;;
47772;SDS011;33534;51.028;13.716;2022-10-22T13:11:40;1.77;;;0.85;;
47772;SDS011;33534;51.028;13.716;2022-10-22T13:14:21;3.38;;;1.10;;
47772;SDS011;33534;51.028;13.716;2022-10-22T13:22:31;2.45;;;0.93;;
47772;SDS011;33534;51.028;13.716;2022-10-22T13:30:26;1.35;;;0.85;;
47772;SDS011;33534;51.028;13.716;2022-10-22T13:32:56;0.73;;;0.55;;
47772;SDS011;33534;51.028;13.716;2022-10-22T13:35:27;1.58;;;0.70;;
47772;SDS011;33534;51.028;13.716;2022-10-22T13:37:54;1.65;;;0.90;;
47772;SDS011;33534;51.028;13.716;2022-10-22T13:40:20;1.92;;;0.90;;
47772;SDS011;33534;51.028;13.716;2022-10-22T13:42:46;1.45;;;0.85;;
47772;SDS011;33534;51.028;13.716;2022-10-22T13:45:16;3.65;;;1.20;;
47772;SDS011;33534;51.028;13.716;2022-10-22T13:47:44;4.05;;;0.93;;
47772;SDS011;33534;51.028;13.716;2022-10-22T13:50:26;2.58;;;1.10;;
47772;SDS011;33534;51.028;13.716;2022-10-22T13:52:58;1.35;;;0.75;;
47772;SDS011;33534;51.028;13.716;2022-10-22T13:55:32;1.45;;;0.80;;
47772;SDS011;33534;51.028;13.716;2022-10-22T13:58:09;2.30;;;1.05;;
47772;SDS011;33534;51.028;13.716;2022-10-22T14:00:42;3.47;;;0.75;;
47772;SDS011;33534;51.028;13.716;2022-10-22T14:03:14;0.98;;;0.85;;
47772;SDS011;33534;51.028;13.716;2022-10-22T14:05:41;2.05;;;0.98;;
47772;SDS011;33534;51.028;13.716;2022-10-22T14:08:10;3.08;;;0.80;;
47772;SDS011;33534;51.028;13.716;2022-10-22T14:10:37;3.25;;;1.55;;
47772;SDS011;33534;51.028;13.716;2022-10-22T14:13:08;1.25;;;0.77;;
47772;SDS011;33534;51.028;13.716;2022-10-22T14:15:37;4.25;;;0.80;;
47772;SDS011;33534;51.028;13.716;2022-10-22T14:18:07;2.97;;;0.95;;
47772;SDS011;33534;51.028;13.716;2022-10-22T14:20:36;2.03;;;0.90;;
47772;SDS011;33534;51.028;13.716;2022-10-22T14:23:14;1.88;;;0.90;;
47772;SDS011;33534;51.028;13.716;2022-10-22T14:25:41;1.95;;;0.70;;
47772;SDS011;33534;51.028;13.716;2022-10-22T14:28:08;1.67;;;1.00;;
47772;SDS011;33534;51.028;13.716;2022-10-22T14:30:34;1.38;;;0.95;;
47772;SDS011;33534;51.028;13.716;2022-10-22T14:33:00;3.78;;;1.20;;
47772;SDS011;33534;51.028;13.716;2022-10-22T14:35:26;1.23;;;0.75;;
47772;SDS011;33534;51.028;13.716;2022-10-22T14:37:52;1.40;;;0.80;;
47772;SDS011;33534;51.028;13.716;2022-10-22T14:40:19;1.20;;;0.70;;
47772;SDS011;33534;51.028;13.716;2022-10-22T14:42:46;1.33;;;0.95;;
47772;SDS011;33534;51.028;13.716;2022-10-22T14:45:22;2.47;;;0.90;;
47772;SDS011;33534;51.028;13.716;2022-10-22T14:47:52;3.17;;;1.02;;
47772;SDS011;33534;51.028;13.716;2022-10-22T14:50:21;1.40;;;1.00;;
47772;SDS011;33534;51.028;13.716;2022-10-22T14:52:48;3.40;;;1.20;;
47772;SDS011;33534;51.028;13.716;2022-10-22T14:55:15;1.20;;;0.85;;
47772;SDS011;33534;51.028;13.716;2022-10-22T14:57:41;2.33;;;1.23;;
47772;SDS011;33534;51.028;13.716;2022-10-22T15:00:11;1.23;;;1.13;;
47772;SDS011;33534;51.028;13.716;2022-10-22T15:02:38;1.20;;;1.10;;
47772;SDS011;33534;51.028;13.716;2022-10-22T15:05:04;1.70;;;1.17;;
47772;SDS011;33534;51.028;13.716;2022-10-22T15:07:30;2.15;;;0.90;;
47772;SDS011;33534;51.028;13.716;2022-10-22T15:09:56;2.03;;;1.08;;
47772;SDS011;33534;51.028;13.716;2022-10-22T15:12:25;2.65;;;1.10;;
47772;SDS011;33534;51.028;13.716;2022-10-22T15:14:51;1.73;;;0.85;;
47772;SDS011;33534;51.028;13.716;2022-10-22T15:17:17;1.73;;;0.80;;
47772;SDS011;33534;51.028;13.716;2022-10-22T15:19:44;3.45;;;1.00;;
47772;SDS011;33534;51.028;13.716;2022-10-22T15:22:10;1.73;;;1.10;;
47772;SDS011;33534;51.028;13.716;2022-10-22T15:24:36;2.80;;;1.05;;
47772;SDS011;33534;51.028;13.716;2022-10-22T15:27:02;1.45;;;0.90;;
47772;SDS011;33534;51.028;13.716;2022-10-22T15:29:29;1.45;;;0.90;;
47772;SDS011;33534;51.028;13.716;2022-10-22T15:31:56;2.75;;;1.00;;
47772;SDS011;33534;51.028;13.716;2022-10-22T15:34:24;2.83;;;1.20;;
47772;SDS011;33534;51.028;13.716;2022-10-22T15:36:52;3.80;;;1.27;;
47772;SDS011;33534;51.028;13.716;2022-10-22T15:39:19;5.30;;;1.35;;
47772;SDS011;33534;51.028;13.716;2022-10-22T15:41:45;1.52;;;1.17;;
47772;SDS011;33534;51.028;13.716;2022-10-22T15:44:15;4.22;;;1.30;;
47772;SDS011;33534;51.028;13.716;2022-10-22T15:46:41;1.77;;;1.05;;
47772;SDS011;33534;51.028;13.716;2022-10-22T15:49:07;1.92;;;1.00;;
47772;SDS011;33534;51.028;13.716;2022-10-22T15:51:34;2.78;;;1.27;;
47772;SDS011;33534;51.028;13.716;2022-10-22T15:54:00;1.30;;;1.20;;
47772;SDS011;33534;51.028;13.716;2022-10-22T15:56:26;2.63;;;1.40;;
47772;SDS011;33534;51.028;13.716;2022-10-22T15:58:53;3.72;;;2.10;;
47772;SDS011;33534;51.028;13.716;2022-10-22T16:01:19;3.55;;;2.45;;
47772;SDS011;33534;51.028;13.716;2022-10-22T16:03:45;1.52;;;1.40;;
47772;SDS011;33534;51.028;13.716;2022-10-22T16:06:12;5.07;;;1.30;;
47772;SDS011;33534;51.028;13.716;2022-10-22T16:08:38;4.15;;;2.08;;
47772;SDS011;33534;51.028;13.716;2022-10-22T16:11:04;5.32;;;3.38;;
47772;SDS011;33534;51.028;13.716;2022-10-22T16:13:30;4.10;;;1.83;;
47772;SDS011;33534;51.028;13.716;2022-10-22T16:15:56;5.32;;;2.58;;
47772;SDS011;33534;51.028;13.716;2022-10-22T16:18:22;2.15;;;1.70;;
47772;SDS011;33534;51.028;13.716;2022-10-22T16:20:48;2.22;;;1.98;;
47772;SDS011;33534;51.028;13.716;2022-10-22T16:23:14;2.95;;;2.65;;
47772;SDS011;33534;51.028;13.716;2022-10-22T16:25:43;3.13;;;2.47;;
47772;SDS011;33534;51.028;13.716;2022-10-22T16:28:09;2.42;;;2.22;;
47772;SDS011;33534;51.028;13.716;2022-10-22T16:30:36;4.50;;;2.50;;
47772;SDS011;33534;51.028;13.716;2022-10-22T16:33:03;5.97;;;2.58;;
47772;SDS011;33534;51.028;13.716;2022-10-22T16:35:30;3.42;;;2.85;;
47772;SDS011;33534;51.028;13.716;2022-10-22T16:37:56;3.55;;;3.03;;
47772;SDS011;33534;51.028;13.716;2022-10-22T16:40:22;6.50;;;3.20;;
47772;SDS011;33534;51.028;13.716;2022-10-22T16:42:48;5.07;;;3.42;;
47772;SDS011;33534;51.028;13.716;2022-10-22T16:45:15;3.55;;;3.25;;
47772;SDS011;33534;51.028;13.716;2022-10-22T16:47:41;6.55;;;3.22;;
47772;SDS011;33534;51.028;13.716;2022-10-22T16:50:09;5.15;;;3.47;;
47772;SDS011;33534;51.028;13.716;2022-10-22T16:52:35;8.68;;;4.13;;
47772;SDS011;33534;51.028;13.716;2022-10-22T16:55:02;7.75;;;4.75;;
47772;SDS011;33534;51.028;13.716;2022-10-22T16:57:28;10.43;;;5.10;;
47772;SDS011;33534;51.028;13.716;2022-10-22T16:59:54;13.68;;;7.15;;
47772;SDS011;33534;51.028;13.716;2022-10-22T17:02:20;19.38;;;9.52;;
47772;SDS011;33534;51.028;13.716;2022-10-22T17:04:46;93.13;;;30.60;;
47772;SDS011;33534;51.028;13.716;2022-10-22T17:07:12;154.65;;;44.83;;
47772;SDS011;33534;51.028;13.716;2022-10-22T17:09:38;123.60;;;39.88;;
47772;SDS011;33534;51.028;13.716;2022-10-22T17:12:04;42.05;;;16.75;;
47772;SDS011;33534;51.028;13.716;2022-10-22T17:14:30;65.30;;;24.02;;
47772;SDS011;33534;51.028;13.716;2022-10-22T17:16:56;30.00;;;13.55;;
47772;SDS011;33534;51.028;13.716;2022-10-22T17:19:22;33.22;;;15.88;;
47772;SDS011;33534;51.028;13.716;2022-10-22T17:21:48;20.92;;;11.25;;
47772;SDS011;33534;51.028;13.716;2022-10-22T17:24:15;26.42;;;14.52;;
47772;SDS011;33534;51.028;13.716;2022-10-22T17:26:41;22.65;;;11.98;;
47772;SDS011;33534;51.028;13.716;2022-10-22T17:29:09;17.88;;;11.40;;
47772;SDS011;33534;51.028;13.716;2022-10-22T17:31:35;16.42;;;10.43;;
47772;SDS011;33534;51.028;13.716;2022-10-22T17:34:02;18.80;;;10.57;;
47772;SDS011;33534;51.028;13.716;2022-10-22T17:36:29;13.50;;;8.82;;
47772;SDS011;33534;51.028;13.716;2022-10-22T17:38:56;13.10;;;9.27;;
47772;SDS011;33534;51.028;13.716;2022-10-22T17:41:24;13.38;;;9.55;;
47772;SDS011;33534;51.028;13.716;2022-10-22T17:43:51;20.42;;;8.63;;
47772;SDS011;33534;51.028;13.716;2022-10-22T17:46:20;11.18;;;8.52;;
47772;SDS011;33534;51.028;13.716;2022-10-22T17:48:53;12.40;;;7.82;;
47772;SDS011;33534;51.028;13.716;2022-10-22T17:51:19;15.75;;;8.93;;
47772;SDS011;33534;51.028;13.716;2022-10-22T17:53:46;9.07;;;7.63;;
47772;SDS011;33534;51.028;13.716;2022-10-22T17:56:15;14.27;;;9.23;;
47772;SDS011;33534;51.028;13.716;2022-10-22T17:58:41;11.88;;;8.23;;
47772;SDS011;33534;51.028;13.716;2022-10-22T18:01:14;9.98;;;6.80;;
47772;SDS011;33534;51.028;13.716;2022-10-22T18:03:40;14.02;;;8.30;;
47772;SDS011;33534;51.028;13.716;2022-10-22T18:06:06;11.00;;;6.47;;
47772;SDS011;33534;51.028;13.716;2022-10-22T18:08:34;12.70;;;8.02;;
47772;SDS011;33534;51.028;13.716;2022-10-22T18:11:03;13.35;;;8.30;;
47772;SDS011;33534;51.028;13.716;2022-10-22T18:13:30;14.13;;;8.55;;
47772;SDS011;33534;51.028;13.716;2022-10-22T18:15:57;25.65;;;12.20;;
47772;SDS011;33534;51.028;13.716;2022-10-22T18:18:23;10.80;;;6.82;;
47772;SDS011;33534;51.028;13.716;2022-10-22T18:20:52;14.32;;;7.63;;
47772;SDS011;33534;51.028;13.716;2022-10-22T18:23:18;11.60;;;7.50;;
47772;SDS011;33534;51.028;13.716;2022-10-22T18:25:45;11.32;;;7.10;;
47772;SDS011;33534;51.028;13.716;2022-10-22T18:28:16;9.30;;;5.35;;
47772;SDS011;33534;51.028;13.716;2022-10-22T18:30:46;9.03;;;5.30;;
47772;SDS011;33534;51.028;13.716;2022-10-22T18:33:13;7.47;;;5.25;;
47772;SDS011;33534;51.028;13.716;2022-10-22T18:46:51;25.38;;;17.70;;
47772;SDS011;33534;51.028;13.716;2022-10-22T18:49:30;23.92;;;15.20;;
47772;SDS011;33534;51.028;13.716;2022-10-22T18:55:46;16.98;;;12.95;;
47772;SDS011;33534;51.028;13.716;2022-10-22T18:58:16;11.55;;;6.40;;